sensor_id;sensor_type;location;lat;lon;timestamp;P1;durP1;ratioP1;P2;durP2;ratioP2
43801;SDS011;29429;51.074;13.764;2023-02-14T00:02:22;21.52;;;14.45;;
43801;SDS011;29429;51.074;13.764;2023-02-14T00:04:49;21.67;;;13.25;;
43801;SDS011;29429;51.074;13.764;2023-02-14T00:07:17;20.15;;;12.75;;
43801;SDS011;29429;51.074;13.764;2023-02-14T00:09:44;32.83;;;18.95;;
43801;SDS011;29429;51.074;13.764;2023-02-14T00:12:11;24.75;;;14.43;;
43801;SDS011;29429;51.074;13.764;2023-02-14T00:14:38;30.83;;;17.40;;
43801;SDS011;29429;51.074;13.764;2023-02-14T00:17:23;28.17;;;17.92;;
43801;SDS011;29429;51.074;13.764;2023-02-14T00:19:50;25.48;;;16.40;;
43801;SDS011;29429;51.074;13.764;2023-02-14T00:22:17;23.92;;;14.93;;
43801;SDS011;29429;51.074;13.764;2023-02-14T00:24:44;23.60;;;14.57;;
43801;SDS011;29429;51.074;13.764;2023-02-14T00:27:11;22.08;;;13.73;;
43801;SDS011;29429;51.074;13.764;2023-02-14T00:29:38;22.23;;;14.25;;
43801;SDS011;29429;51.074;13.764;2023-02-14T00:32:05;21.20;;;14.15;;
43801;SDS011;29429;51.074;13.764;2023-02-14T00:34:34;26.75;;;15.88;;
43801;SDS011;29429;51.074;13.764;2023-02-14T00:37:02;23.50;;;14.85;;
43801;SDS011;29429;51.074;13.764;2023-02-14T00:39:30;23.38;;;14.50;;
43801;SDS011;29429;51.074;13.764;2023-02-14T00:41:56;23.38;;;14.35;;
43801;SDS011;29429;51.074;13.764;2023-02-14T00:44:24;23.73;;;14.75;;
43801;SDS011;29429;51.074;13.764;2023-02-14T00:46:51;22.02;;;13.38;;
43801;SDS011;29429;51.074;13.764;2023-02-14T00:49:18;19.25;;;13.02;;
43801;SDS011;29429;51.074;13.764;2023-02-14T00:51:45;20.55;;;13.35;;
43801;SDS011;29429;51.074;13.764;2023-02-14T00:54:12;20.17;;;13.00;;
43801;SDS011;29429;51.074;13.764;2023-02-14T00:56:39;21.48;;;13.98;;
43801;SDS011;29429;51.074;13.764;2023-02-14T00:59:07;22.45;;;14.07;;
43801;SDS011;29429;51.074;13.764;2023-02-14T01:01:34;23.58;;;14.57;;
43801;SDS011;29429;51.074;13.764;2023-02-14T01:04:02;30.60;;;16.75;;
43801;SDS011;29429;51.074;13.764;2023-02-14T01:06:30;24.80;;;15.73;;
43801;SDS011;29429;51.074;13.764;2023-02-14T01:09:00;22.10;;;13.65;;
43801;SDS011;29429;51.074;13.764;2023-02-14T01:11:31;22.45;;;13.57;;
43801;SDS011;29429;51.074;13.764;2023-02-14T01:13:58;23.30;;;14.07;;
43801;SDS011;29429;51.074;13.764;2023-02-14T01:16:26;22.75;;;14.55;;
43801;SDS011;29429;51.074;13.764;2023-02-14T01:18:57;24.58;;;15.25;;
43801;SDS011;29429;51.074;13.764;2023-02-14T01:21:30;22.75;;;14.57;;
43801;SDS011;29429;51.074;13.764;2023-02-14T01:24:00;22.48;;;13.52;;
43801;SDS011;29429;51.074;13.764;2023-02-14T01:26:31;23.33;;;14.60;;
43801;SDS011;29429;51.074;13.764;2023-02-14T01:29:00;21.42;;;13.20;;
43801;SDS011;29429;51.074;13.764;2023-02-14T01:31:30;22.10;;;13.77;;
43801;SDS011;29429;51.074;13.764;2023-02-14T01:34:00;16.45;;;10.88;;
43801;SDS011;29429;51.074;13.764;2023-02-14T01:36:29;20.35;;;12.85;;
43801;SDS011;29429;51.074;13.764;2023-02-14T01:41:34;20.80;;;13.07;;
43801;SDS011;29429;51.074;13.764;2023-02-14T01:46:36;27.13;;;14.73;;
43801;SDS011;29429;51.074;13.764;2023-02-14T01:51:45;19.98;;;13.10;;
43801;SDS011;29429;51.074;13.764;2023-02-14T01:54:32;24.80;;;14.18;;
43801;SDS011;29429;51.074;13.764;2023-02-14T01:57:05;21.95;;;13.43;;
43801;SDS011;29429;51.074;13.764;2023-02-14T01:59:41;21.58;;;14.18;;
43801;SDS011;29429;51.074;13.764;2023-02-14T02:02:19;22.17;;;13.73;;
43801;SDS011;29429;51.074;13.764;2023-02-14T02:04:50;22.05;;;12.75;;
43801;SDS011;29429;51.074;13.764;2023-02-14T02:07:24;24.13;;;13.80;;
43801;SDS011;29429;51.074;13.764;2023-02-14T02:09:57;24.73;;;16.02;;
43801;SDS011;29429;51.074;13.764;2023-02-14T02:12:29;25.33;;;14.30;;
43801;SDS011;29429;51.074;13.764;2023-02-14T02:15:01;24.60;;;14.93;;
43801;SDS011;29429;51.074;13.764;2023-02-14T02:17:42;22.42;;;14.18;;
43801;SDS011;29429;51.074;13.764;2023-02-14T02:29:42;22.25;;;13.13;;
43801;SDS011;29429;51.074;13.764;2023-02-14T02:41:37;19.27;;;12.48;;
43801;SDS011;29429;51.074;13.764;2023-02-14T02:45:04;17.92;;;11.32;;
43801;SDS011;29429;51.074;13.764;2023-02-14T02:59:01;19.30;;;10.95;;
43801;SDS011;29429;51.074;13.764;2023-02-14T03:04:59;25.75;;;12.95;;
43801;SDS011;29429;51.074;13.764;2023-02-14T03:07:33;19.75;;;11.90;;
43801;SDS011;29429;51.074;13.764;2023-02-14T03:12:46;21.88;;;12.55;;
43801;SDS011;29429;51.074;13.764;2023-02-14T03:27:21;21.80;;;12.27;;
43801;SDS011;29429;51.074;13.764;2023-02-14T03:32:41;19.92;;;11.55;;
43801;SDS011;29429;51.074;13.764;2023-02-14T03:35:36;23.50;;;14.25;;
43801;SDS011;29429;51.074;13.764;2023-02-14T03:38:43;21.05;;;12.60;;
43801;SDS011;29429;51.074;13.764;2023-02-14T03:41:22;19.98;;;13.05;;
43801;SDS011;29429;51.074;13.764;2023-02-14T03:46:35;21.48;;;13.25;;
43801;SDS011;29429;51.074;13.764;2023-02-14T03:49:16;22.75;;;12.88;;
43801;SDS011;29429;51.074;13.764;2023-02-14T03:51:49;22.73;;;13.60;;
43801;SDS011;29429;51.074;13.764;2023-02-14T03:54:21;25.58;;;14.43;;
43801;SDS011;29429;51.074;13.764;2023-02-14T03:56:55;25.05;;;14.68;;
43801;SDS011;29429;51.074;13.764;2023-02-14T03:59:29;21.73;;;13.57;;
43801;SDS011;29429;51.074;13.764;2023-02-14T04:02:01;19.48;;;11.93;;
43801;SDS011;29429;51.074;13.764;2023-02-14T04:04:39;20.30;;;12.60;;
43801;SDS011;29429;51.074;13.764;2023-02-14T04:09:44;22.60;;;13.70;;
43801;SDS011;29429;51.074;13.764;2023-02-14T04:12:12;23.73;;;13.73;;
43801;SDS011;29429;51.074;13.764;2023-02-14T04:14:43;25.05;;;14.05;;
43801;SDS011;29429;51.074;13.764;2023-02-14T04:17:10;22.98;;;13.57;;
43801;SDS011;29429;51.074;13.764;2023-02-14T04:19:55;22.35;;;12.88;;
43801;SDS011;29429;51.074;13.764;2023-02-14T04:22:22;23.42;;;13.57;;
43801;SDS011;29429;51.074;13.764;2023-02-14T04:24:49;24.90;;;14.10;;
43801;SDS011;29429;51.074;13.764;2023-02-14T04:27:16;20.17;;;12.75;;
43801;SDS011;29429;51.074;13.764;2023-02-14T04:29:44;22.67;;;13.57;;
43801;SDS011;29429;51.074;13.764;2023-02-14T04:32:15;25.95;;;15.35;;
43801;SDS011;29429;51.074;13.764;2023-02-14T04:34:45;22.48;;;13.82;;
43801;SDS011;29429;51.074;13.764;2023-02-14T04:37:14;24.48;;;14.65;;
43801;SDS011;29429;51.074;13.764;2023-02-14T04:39:43;21.73;;;12.35;;
43801;SDS011;29429;51.074;13.764;2023-02-14T04:42:11;29.88;;;16.25;;
43801;SDS011;29429;51.074;13.764;2023-02-14T04:44:38;25.55;;;14.88;;
43801;SDS011;29429;51.074;13.764;2023-02-14T04:47:05;29.17;;;16.35;;
43801;SDS011;29429;51.074;13.764;2023-02-14T04:49:34;31.85;;;17.80;;
43801;SDS011;29429;51.074;13.764;2023-02-14T04:52:02;26.38;;;14.98;;
43801;SDS011;29429;51.074;13.764;2023-02-14T04:54:30;23.85;;;14.30;;
43801;SDS011;29429;51.074;13.764;2023-02-14T04:56:58;28.50;;;15.45;;
43801;SDS011;29429;51.074;13.764;2023-02-14T04:59:25;30.83;;;16.05;;
43801;SDS011;29429;51.074;13.764;2023-02-14T05:01:53;22.60;;;13.70;;
43801;SDS011;29429;51.074;13.764;2023-02-14T05:04:20;29.77;;;15.32;;
43801;SDS011;29429;51.074;13.764;2023-02-14T05:06:47;28.23;;;15.60;;
43801;SDS011;29429;51.074;13.764;2023-02-14T05:09:14;25.85;;;15.43;;
43801;SDS011;29429;51.074;13.764;2023-02-14T05:11:41;31.85;;;16.85;;
43801;SDS011;29429;51.074;13.764;2023-02-14T05:14:08;32.60;;;17.60;;
43801;SDS011;29429;51.074;13.764;2023-02-14T05:16:35;25.63;;;15.70;;
43801;SDS011;29429;51.074;13.764;2023-02-14T05:19:03;31.25;;;17.30;;
43801;SDS011;29429;51.074;13.764;2023-02-14T05:21:30;31.67;;;17.77;;
43801;SDS011;29429;51.074;13.764;2023-02-14T05:23:59;27.40;;;16.27;;
43801;SDS011;29429;51.074;13.764;2023-02-14T05:26:26;30.55;;;16.83;;
43801;SDS011;29429;51.074;13.764;2023-02-14T05:28:53;28.98;;;16.83;;
43801;SDS011;29429;51.074;13.764;2023-02-14T05:31:21;25.55;;;14.77;;
43801;SDS011;29429;51.074;13.764;2023-02-14T05:33:48;29.80;;;16.95;;
43801;SDS011;29429;51.074;13.764;2023-02-14T05:36:15;31.92;;;17.40;;
43801;SDS011;29429;51.074;13.764;2023-02-14T05:38:42;32.08;;;17.23;;
43801;SDS011;29429;51.074;13.764;2023-02-14T05:41:09;28.90;;;15.98;;
43801;SDS011;29429;51.074;13.764;2023-02-14T05:43:36;28.70;;;16.77;;
43801;SDS011;29429;51.074;13.764;2023-02-14T05:46:04;33.63;;;17.27;;
43801;SDS011;29429;51.074;13.764;2023-02-14T05:48:31;25.10;;;15.32;;
43801;SDS011;29429;51.074;13.764;2023-02-14T05:51:06;24.98;;;14.93;;
43801;SDS011;29429;51.074;13.764;2023-02-14T05:53:35;25.85;;;14.52;;
43801;SDS011;29429;51.074;13.764;2023-02-14T05:56:02;27.38;;;14.25;;
43801;SDS011;29429;51.074;13.764;2023-02-14T05:58:30;24.02;;;14.15;;
43801;SDS011;29429;51.074;13.764;2023-02-14T06:00:58;23.10;;;14.45;;
43801;SDS011;29429;51.074;13.764;2023-02-14T06:03:26;24.67;;;14.55;;
43801;SDS011;29429;51.074;13.764;2023-02-14T06:05:53;21.55;;;13.43;;
43801;SDS011;29429;51.074;13.764;2023-02-14T06:08:20;24.05;;;14.40;;
43801;SDS011;29429;51.074;13.764;2023-02-14T06:10:47;26.20;;;14.15;;
43801;SDS011;29429;51.074;13.764;2023-02-14T06:13:14;18.80;;;12.32;;
43801;SDS011;29429;51.074;13.764;2023-02-14T06:15:42;25.98;;;14.40;;
43801;SDS011;29429;51.074;13.764;2023-02-14T06:18:09;24.83;;;14.88;;
43801;SDS011;29429;51.074;13.764;2023-02-14T06:20:36;32.67;;;16.95;;
43801;SDS011;29429;51.074;13.764;2023-02-14T06:23:03;24.95;;;14.40;;
43801;SDS011;29429;51.074;13.764;2023-02-14T06:25:30;24.38;;;14.48;;
43801;SDS011;29429;51.074;13.764;2023-02-14T06:27:57;26.33;;;14.35;;
43801;SDS011;29429;51.074;13.764;2023-02-14T06:30:25;24.23;;;14.18;;
43801;SDS011;29429;51.074;13.764;2023-02-14T06:32:53;25.50;;;14.90;;
43801;SDS011;29429;51.074;13.764;2023-02-14T06:35:24;27.35;;;16.58;;
43801;SDS011;29429;51.074;13.764;2023-02-14T06:37:51;28.02;;;16.98;;
43801;SDS011;29429;51.074;13.764;2023-02-14T06:40:19;30.25;;;16.77;;
43801;SDS011;29429;51.074;13.764;2023-02-14T06:42:46;23.92;;;15.43;;
43801;SDS011;29429;51.074;13.764;2023-02-14T06:45:13;24.77;;;15.40;;
43801;SDS011;29429;51.074;13.764;2023-02-14T06:47:40;26.13;;;14.40;;
43801;SDS011;29429;51.074;13.764;2023-02-14T06:50:07;22.67;;;14.73;;
43801;SDS011;29429;51.074;13.764;2023-02-14T06:52:37;24.90;;;14.63;;
43801;SDS011;29429;51.074;13.764;2023-02-14T06:55:04;33.28;;;17.90;;
43801;SDS011;29429;51.074;13.764;2023-02-14T06:57:32;28.70;;;15.20;;
43801;SDS011;29429;51.074;13.764;2023-02-14T06:59:59;26.48;;;15.30;;
43801;SDS011;29429;51.074;13.764;2023-02-14T07:02:27;32.25;;;16.75;;
43801;SDS011;29429;51.074;13.764;2023-02-14T07:04:54;26.58;;;15.75;;
43801;SDS011;29429;51.074;13.764;2023-02-14T07:07:21;23.98;;;13.68;;
43801;SDS011;29429;51.074;13.764;2023-02-14T07:09:48;24.27;;;14.35;;
43801;SDS011;29429;51.074;13.764;2023-02-14T07:12:15;24.35;;;15.43;;
43801;SDS011;29429;51.074;13.764;2023-02-14T07:14:42;24.13;;;13.88;;
43801;SDS011;29429;51.074;13.764;2023-02-14T07:17:09;22.20;;;14.45;;
43801;SDS011;29429;51.074;13.764;2023-02-14T07:19:39;27.73;;;16.00;;
43801;SDS011;29429;51.074;13.764;2023-02-14T07:22:07;22.90;;;13.63;;
43801;SDS011;29429;51.074;13.764;2023-02-14T07:24:35;24.60;;;14.10;;
43801;SDS011;29429;51.074;13.764;2023-02-14T07:27:03;27.48;;;16.38;;
43801;SDS011;29429;51.074;13.764;2023-02-14T07:29:30;21.88;;;14.05;;
43801;SDS011;29429;51.074;13.764;2023-02-14T07:31:57;26.33;;;17.05;;
43801;SDS011;29429;51.074;13.764;2023-02-14T07:34:24;27.92;;;16.65;;
43801;SDS011;29429;51.074;13.764;2023-02-14T07:36:55;24.23;;;14.60;;
43801;SDS011;29429;51.074;13.764;2023-02-14T07:39:22;23.77;;;13.88;;
43801;SDS011;29429;51.074;13.764;2023-02-14T07:41:49;24.65;;;14.48;;
43801;SDS011;29429;51.074;13.764;2023-02-14T07:44:18;30.23;;;18.27;;
43801;SDS011;29429;51.074;13.764;2023-02-14T07:46:45;32.60;;;19.55;;
43801;SDS011;29429;51.074;13.764;2023-02-14T07:49:12;28.42;;;18.33;;
43801;SDS011;29429;51.074;13.764;2023-02-14T07:51:39;30.67;;;19.30;;
43801;SDS011;29429;51.074;13.764;2023-02-14T07:54:09;27.48;;;17.38;;
43801;SDS011;29429;51.074;13.764;2023-02-14T07:56:37;28.83;;;17.45;;
43801;SDS011;29429;51.074;13.764;2023-02-14T07:59:04;31.90;;;19.98;;
43801;SDS011;29429;51.074;13.764;2023-02-14T08:01:39;33.30;;;19.73;;
43801;SDS011;29429;51.074;13.764;2023-02-14T08:04:06;31.83;;;18.67;;
43801;SDS011;29429;51.074;13.764;2023-02-14T08:06:33;27.77;;;18.00;;
43801;SDS011;29429;51.074;13.764;2023-02-14T08:09:00;29.73;;;16.85;;
43801;SDS011;29429;51.074;13.764;2023-02-14T08:11:27;29.73;;;16.98;;
43801;SDS011;29429;51.074;13.764;2023-02-14T08:14:20;25.70;;;17.02;;
43801;SDS011;29429;51.074;13.764;2023-02-14T08:16:48;31.10;;;18.85;;
43801;SDS011;29429;51.074;13.764;2023-02-14T08:19:15;39.05;;;19.83;;
43801;SDS011;29429;51.074;13.764;2023-02-14T08:21:42;27.85;;;17.98;;
43801;SDS011;29429;51.074;13.764;2023-02-14T08:24:09;26.65;;;15.80;;
43801;SDS011;29429;51.074;13.764;2023-02-14T08:26:36;26.25;;;16.27;;
43801;SDS011;29429;51.074;13.764;2023-02-14T08:29:03;28.63;;;17.08;;
43801;SDS011;29429;51.074;13.764;2023-02-14T08:31:30;26.65;;;16.65;;
43801;SDS011;29429;51.074;13.764;2023-02-14T08:34:01;29.25;;;18.55;;
43801;SDS011;29429;51.074;13.764;2023-02-14T08:36:32;30.58;;;18.15;;
43801;SDS011;29429;51.074;13.764;2023-02-14T08:38:59;24.02;;;15.68;;
43801;SDS011;29429;51.074;13.764;2023-02-14T08:41:27;25.83;;;16.25;;
43801;SDS011;29429;51.074;13.764;2023-02-14T08:43:54;27.85;;;17.25;;
43801;SDS011;29429;51.074;13.764;2023-02-14T08:46:21;26.13;;;17.30;;
43801;SDS011;29429;51.074;13.764;2023-02-14T08:48:48;26.88;;;16.83;;
43801;SDS011;29429;51.074;13.764;2023-02-14T08:51:16;30.00;;;17.90;;
43801;SDS011;29429;51.074;13.764;2023-02-14T08:53:44;25.02;;;16.38;;
43801;SDS011;29429;51.074;13.764;2023-02-14T08:56:12;22.70;;;14.77;;
43801;SDS011;29429;51.074;13.764;2023-02-14T08:58:40;26.80;;;15.43;;
43801;SDS011;29429;51.074;13.764;2023-02-14T09:01:11;24.08;;;15.55;;
43801;SDS011;29429;51.074;13.764;2023-02-14T09:03:42;23.98;;;14.52;;
43801;SDS011;29429;51.074;13.764;2023-02-14T09:06:11;20.75;;;13.32;;
43801;SDS011;29429;51.074;13.764;2023-02-14T09:08:43;24.30;;;15.10;;
43801;SDS011;29429;51.074;13.764;2023-02-14T09:11:14;20.98;;;12.38;;
43801;SDS011;29429;51.074;13.764;2023-02-14T09:13:45;24.70;;;14.27;;
43801;SDS011;29429;51.074;13.764;2023-02-14T09:16:14;21.02;;;13.15;;
43801;SDS011;29429;51.074;13.764;2023-02-14T09:18:57;22.38;;;14.18;;
43801;SDS011;29429;51.074;13.764;2023-02-14T09:21:25;22.15;;;13.98;;
43801;SDS011;29429;51.074;13.764;2023-02-14T09:23:53;22.20;;;14.30;;
43801;SDS011;29429;51.074;13.764;2023-02-14T09:26:20;25.45;;;15.00;;
43801;SDS011;29429;51.074;13.764;2023-02-14T09:28:47;20.10;;;12.48;;
43801;SDS011;29429;51.074;13.764;2023-02-14T09:31:19;20.13;;;12.43;;
43801;SDS011;29429;51.074;13.764;2023-02-14T09:33:49;21.33;;;14.27;;
43801;SDS011;29429;51.074;13.764;2023-02-14T09:36:17;21.52;;;14.02;;
43801;SDS011;29429;51.074;13.764;2023-02-14T09:38:45;21.10;;;13.20;;
43801;SDS011;29429;51.074;13.764;2023-02-14T09:47:34;21.95;;;12.95;;
43801;SDS011;29429;51.074;13.764;2023-02-14T09:50:36;18.17;;;11.38;;
43801;SDS011;29429;51.074;13.764;2023-02-14T09:53:32;17.30;;;10.30;;
43801;SDS011;29429;51.074;13.764;2023-02-14T09:56:26;18.70;;;9.38;;
43801;SDS011;29429;51.074;13.764;2023-02-14T10:03:01;13.35;;;9.38;;
43801;SDS011;29429;51.074;13.764;2023-02-14T10:06:01;20.17;;;11.80;;
43801;SDS011;29429;51.074;13.764;2023-02-14T10:11:50;15.88;;;9.80;;
43801;SDS011;29429;51.074;13.764;2023-02-14T10:14:20;18.25;;;10.95;;
43801;SDS011;29429;51.074;13.764;2023-02-14T10:17:04;15.55;;;10.60;;
43801;SDS011;29429;51.074;13.764;2023-02-14T10:19:55;15.88;;;9.77;;
43801;SDS011;29429;51.074;13.764;2023-02-14T10:22:40;16.65;;;10.80;;
43801;SDS011;29429;51.074;13.764;2023-02-14T10:25:33;18.05;;;11.30;;
43801;SDS011;29429;51.074;13.764;2023-02-14T10:28:11;16.90;;;11.23;;
43801;SDS011;29429;51.074;13.764;2023-02-14T10:30:44;16.38;;;10.35;;
43801;SDS011;29429;51.074;13.764;2023-02-14T10:33:41;14.93;;;9.85;;
43801;SDS011;29429;51.074;13.764;2023-02-14T10:36:31;17.85;;;11.65;;
43801;SDS011;29429;51.074;13.764;2023-02-14T10:56:54;16.60;;;11.35;;
43801;SDS011;29429;51.074;13.764;2023-02-14T11:02:37;18.38;;;11.27;;
43801;SDS011;29429;51.074;13.764;2023-02-14T11:05:27;19.70;;;12.07;;
43801;SDS011;29429;51.074;13.764;2023-02-14T11:08:12;18.33;;;11.65;;
43801;SDS011;29429;51.074;13.764;2023-02-14T11:11:00;17.35;;;10.80;;
43801;SDS011;29429;51.074;13.764;2023-02-14T11:13:41;16.25;;;10.98;;
43801;SDS011;29429;51.074;13.764;2023-02-14T11:16:10;18.65;;;11.45;;
43801;SDS011;29429;51.074;13.764;2023-02-14T11:18:45;17.25;;;12.02;;
43801;SDS011;29429;51.074;13.764;2023-02-14T11:21:13;17.63;;;11.10;;
43801;SDS011;29429;51.074;13.764;2023-02-14T11:23:50;16.65;;;11.05;;
43801;SDS011;29429;51.074;13.764;2023-02-14T11:26:24;15.48;;;11.00;;
43801;SDS011;29429;51.074;13.764;2023-02-14T11:28:58;17.58;;;11.75;;
43801;SDS011;29429;51.074;13.764;2023-02-14T11:31:30;17.55;;;10.85;;
43801;SDS011;29429;51.074;13.764;2023-02-14T11:34:03;15.65;;;10.48;;
43801;SDS011;29429;51.074;13.764;2023-02-14T11:36:48;17.80;;;12.00;;
43801;SDS011;29429;51.074;13.764;2023-02-14T11:39:25;14.63;;;10.40;;
43801;SDS011;29429;51.074;13.764;2023-02-14T11:42:00;17.15;;;10.98;;
43801;SDS011;29429;51.074;13.764;2023-02-14T11:44:31;16.45;;;10.93;;
43801;SDS011;29429;51.074;13.764;2023-02-14T11:47:19;20.05;;;11.27;;
43801;SDS011;29429;51.074;13.764;2023-02-14T11:49:56;16.77;;;11.38;;
43801;SDS011;29429;51.074;13.764;2023-02-14T11:52:37;17.95;;;11.27;;
43801;SDS011;29429;51.074;13.764;2023-02-14T11:55:22;15.95;;;11.35;;
43801;SDS011;29429;51.074;13.764;2023-02-14T11:57:59;15.68;;;11.05;;
43801;SDS011;29429;51.074;13.764;2023-02-14T12:00:30;15.68;;;10.30;;
43801;SDS011;29429;51.074;13.764;2023-02-14T12:03:00;18.45;;;11.50;;
43801;SDS011;29429;51.074;13.764;2023-02-14T12:05:35;16.33;;;10.63;;
43801;SDS011;29429;51.074;13.764;2023-02-14T12:08:14;14.48;;;10.27;;
43801;SDS011;29429;51.074;13.764;2023-02-14T12:10:59;16.98;;;10.45;;
43801;SDS011;29429;51.074;13.764;2023-02-14T12:13:50;15.82;;;10.25;;
43801;SDS011;29429;51.074;13.764;2023-02-14T12:16:25;16.33;;;10.38;;
43801;SDS011;29429;51.074;13.764;2023-02-14T12:19:05;17.10;;;10.65;;
43801;SDS011;29429;51.074;13.764;2023-02-14T12:21:55;17.08;;;10.85;;
43801;SDS011;29429;51.074;13.764;2023-02-14T12:24:32;15.07;;;9.38;;
43801;SDS011;29429;51.074;13.764;2023-02-14T12:30:15;15.88;;;10.02;;
43801;SDS011;29429;51.074;13.764;2023-02-14T12:32:47;14.82;;;10.20;;
43801;SDS011;29429;51.074;13.764;2023-02-14T12:35:25;14.15;;;9.43;;
43801;SDS011;29429;51.074;13.764;2023-02-14T12:38:07;17.35;;;10.35;;
43801;SDS011;29429;51.074;13.764;2023-02-14T12:40:48;16.10;;;9.52;;
43801;SDS011;29429;51.074;13.764;2023-02-14T12:43:49;18.25;;;9.98;;
43801;SDS011;29429;51.074;13.764;2023-02-14T12:46:44;15.05;;;10.18;;
43801;SDS011;29429;51.074;13.764;2023-02-14T13:04:17;12.30;;;9.63;;
43801;SDS011;29429;51.074;13.764;2023-02-14T13:07:00;13.73;;;8.95;;
43801;SDS011;29429;51.074;13.764;2023-02-14T13:09:44;15.93;;;10.55;;
43801;SDS011;29429;51.074;13.764;2023-02-14T13:12:47;17.30;;;10.63;;
43801;SDS011;29429;51.074;13.764;2023-02-14T13:21:00;13.25;;;9.23;;
43801;SDS011;29429;51.074;13.764;2023-02-14T13:23:40;15.02;;;9.50;;
43801;SDS011;29429;51.074;13.764;2023-02-14T13:26:34;17.45;;;9.07;;
43801;SDS011;29429;51.074;13.764;2023-02-14T13:29:06;13.43;;;9.80;;
43801;SDS011;29429;51.074;13.764;2023-02-14T13:31:40;12.73;;;9.70;;
43801;SDS011;29429;51.074;13.764;2023-02-14T13:36:59;15.57;;;10.00;;
43801;SDS011;29429;51.074;13.764;2023-02-14T13:39:41;14.00;;;9.32;;
43801;SDS011;29429;51.074;13.764;2023-02-14T13:53:30;15.52;;;9.45;;
43801;SDS011;29429;51.074;13.764;2023-02-14T14:01:38;14.23;;;8.73;;
43801;SDS011;29429;51.074;13.764;2023-02-14T14:20:44;14.07;;;9.05;;
43801;SDS011;29429;51.074;13.764;2023-02-14T14:23:28;13.23;;;9.13;;
43801;SDS011;29429;51.074;13.764;2023-02-14T14:26:03;16.10;;;10.02;;
43801;SDS011;29429;51.074;13.764;2023-02-14T14:31:57;15.10;;;10.05;;
43801;SDS011;29429;51.074;13.764;2023-02-14T14:34:25;17.40;;;11.40;;
43801;SDS011;29429;51.074;13.764;2023-02-14T14:37:05;18.40;;;11.73;;
43801;SDS011;29429;51.074;13.764;2023-02-14T14:39:42;21.80;;;13.15;;
43801;SDS011;29429;51.074;13.764;2023-02-14T14:42:18;21.65;;;14.75;;
43801;SDS011;29429;51.074;13.764;2023-02-14T14:44:49;22.77;;;14.95;;
43801;SDS011;29429;51.074;13.764;2023-02-14T14:47:25;24.00;;;14.10;;
43801;SDS011;29429;51.074;13.764;2023-02-14T14:50:18;23.40;;;15.02;;
43801;SDS011;29429;51.074;13.764;2023-02-14T14:52:52;20.77;;;14.57;;
43801;SDS011;29429;51.074;13.764;2023-02-14T14:55:23;21.95;;;14.98;;
43801;SDS011;29429;51.074;13.764;2023-02-14T14:57:55;22.45;;;15.43;;
43801;SDS011;29429;51.074;13.764;2023-02-14T15:00:27;25.10;;;15.52;;
43801;SDS011;29429;51.074;13.764;2023-02-14T15:03:02;22.43;;;15.40;;
43801;SDS011;29429;51.074;13.764;2023-02-14T15:05:41;26.17;;;16.27;;
43801;SDS011;29429;51.074;13.764;2023-02-14T15:08:33;23.90;;;14.80;;
43801;SDS011;29429;51.074;13.764;2023-02-14T15:11:04;23.55;;;15.80;;
43801;SDS011;29429;51.074;13.764;2023-02-14T15:14:00;25.08;;;15.43;;
43801;SDS011;29429;51.074;13.764;2023-02-14T15:16:37;24.80;;;16.52;;
43801;SDS011;29429;51.074;13.764;2023-02-14T15:19:24;26.05;;;16.67;;
43801;SDS011;29429;51.074;13.764;2023-02-14T15:22:06;24.23;;;14.75;;
43801;SDS011;29429;51.074;13.764;2023-02-14T15:24:56;28.52;;;17.75;;
43801;SDS011;29429;51.074;13.764;2023-02-14T15:27:24;27.30;;;17.65;;
43801;SDS011;29429;51.074;13.764;2023-02-14T15:30:00;33.00;;;17.55;;
43801;SDS011;29429;51.074;13.764;2023-02-14T15:32:35;26.02;;;16.08;;
43801;SDS011;29429;51.074;13.764;2023-02-14T15:35:04;26.42;;;16.38;;
43801;SDS011;29429;51.074;13.764;2023-02-14T15:37:32;27.85;;;17.10;;
43801;SDS011;29429;51.074;13.764;2023-02-14T15:40:00;26.73;;;16.27;;
43801;SDS011;29429;51.074;13.764;2023-02-14T15:42:29;28.30;;;17.27;;
43801;SDS011;29429;51.074;13.764;2023-02-14T15:48:01;28.10;;;15.55;;
43801;SDS011;29429;51.074;13.764;2023-02-14T15:50:41;31.55;;;18.15;;
43801;SDS011;29429;51.074;13.764;2023-02-14T15:56:17;26.13;;;16.30;;
43801;SDS011;29429;51.074;13.764;2023-02-14T15:59:00;29.23;;;17.48;;
43801;SDS011;29429;51.074;13.764;2023-02-14T16:01:38;32.90;;;19.30;;
43801;SDS011;29429;51.074;13.764;2023-02-14T16:04:05;31.67;;;18.40;;
43801;SDS011;29429;51.074;13.764;2023-02-14T16:06:42;29.90;;;18.27;;
43801;SDS011;29429;51.074;13.764;2023-02-14T16:09:24;30.27;;;16.92;;
43801;SDS011;29429;51.074;13.764;2023-02-14T16:11:53;30.80;;;17.83;;
43801;SDS011;29429;51.074;13.764;2023-02-14T16:14:34;31.77;;;17.60;;
43801;SDS011;29429;51.074;13.764;2023-02-14T16:19:44;31.67;;;17.55;;
43801;SDS011;29429;51.074;13.764;2023-02-14T16:22:22;35.33;;;18.15;;
43801;SDS011;29429;51.074;13.764;2023-02-14T16:27:27;27.02;;;16.95;;
43801;SDS011;29429;51.074;13.764;2023-02-14T16:29:54;29.23;;;17.33;;
43801;SDS011;29429;51.074;13.764;2023-02-14T16:32:21;30.15;;;16.77;;
43801;SDS011;29429;51.074;13.764;2023-02-14T16:34:49;26.90;;;16.45;;
43801;SDS011;29429;51.074;13.764;2023-02-14T16:37:20;28.90;;;17.60;;
43801;SDS011;29429;51.074;13.764;2023-02-14T16:39:56;33.30;;;19.08;;
43801;SDS011;29429;51.074;13.764;2023-02-14T16:42:26;32.42;;;18.33;;
43801;SDS011;29429;51.074;13.764;2023-02-14T16:44:54;32.75;;;19.35;;
43801;SDS011;29429;51.074;13.764;2023-02-14T16:47:21;31.02;;;19.20;;
43801;SDS011;29429;51.074;13.764;2023-02-14T16:49:48;32.67;;;19.35;;
43801;SDS011;29429;51.074;13.764;2023-02-14T16:52:22;33.40;;;17.77;;
43801;SDS011;29429;51.074;13.764;2023-02-14T16:54:53;30.40;;;18.02;;
43801;SDS011;29429;51.074;13.764;2023-02-14T16:57:27;32.35;;;17.80;;
43801;SDS011;29429;51.074;13.764;2023-02-14T16:59:59;33.38;;;18.95;;
43801;SDS011;29429;51.074;13.764;2023-02-14T17:02:27;31.77;;;18.13;;
43801;SDS011;29429;51.074;13.764;2023-02-14T17:04:54;32.72;;;19.20;;
43801;SDS011;29429;51.074;13.764;2023-02-14T17:07:21;32.50;;;18.55;;
43801;SDS011;29429;51.074;13.764;2023-02-14T17:09:50;35.10;;;20.25;;
43801;SDS011;29429;51.074;13.764;2023-02-14T17:12:25;32.27;;;18.97;;
43801;SDS011;29429;51.074;13.764;2023-02-14T17:14:57;35.83;;;19.40;;
43801;SDS011;29429;51.074;13.764;2023-02-14T17:17:36;35.50;;;19.65;;
43801;SDS011;29429;51.074;13.764;2023-02-14T17:20:04;34.05;;;19.75;;
43801;SDS011;29429;51.074;13.764;2023-02-14T17:22:34;32.83;;;19.88;;
43801;SDS011;29429;51.074;13.764;2023-02-14T17:25:03;33.75;;;19.33;;
43801;SDS011;29429;51.074;13.764;2023-02-14T17:27:31;32.90;;;18.60;;
43801;SDS011;29429;51.074;13.764;2023-02-14T17:29:58;34.55;;;20.02;;
43801;SDS011;29429;51.074;13.764;2023-02-14T17:32:25;37.22;;;18.98;;
43801;SDS011;29429;51.074;13.764;2023-02-14T17:34:52;33.67;;;18.83;;